Time;durP1;ratioP1;P1;durP2;ratioP2;P2;SDS_P1;SDS_P2;PMS_P1;PMS_P2;Temp;Humidity;BMP_temperature;BMP_pressure;BME280_temperature;BME280_humidity;BME280_pressure;Samples;Min_cycle;Max_cycle;Signal;HPM_P1;HPM_P2
2022/10/24 00:00:12;;;;;;;5.03;4.63;;;13.00;99.90;;;;;;6295327;28;20469;-63
2022/10/24 00:03:15;;;;;;;7.70;4.40;;;13.00;99.90;;;;;;6297896;28;20554;-63
2022/10/24 00:06:20;;;;;;;5.50;5.00;;;13.00;99.90;;;;;;6297459;28;20507;-64
2022/10/24 00:09:23;;;;;;;8.23;4.83;;;13.00;99.90;;;;;;6293123;28;20480;-63
2022/10/24 00:12:26;;;;;;;5.57;5.00;;;13.00;99.90;;;;;;6312220;28;20781;-63
2022/10/24 00:15:30;;;;;;;7.60;3.87;;;13.00;99.90;;;;;;6348956;28;20815;-64
2022/10/24 00:18:34;;;;;;;5.43;4.93;;;13.00;99.90;;;;;;6348854;28;20479;-64
2022/10/24 00:21:37;;;;;;;4.60;4.20;;;13.00;99.90;;;;;;6350258;28;20486;-64
2022/10/24 00:24:41;;;;;;;5.67;4.70;;;13.00;99.90;;;;;;6354312;28;20475;-64
2022/10/24 00:27:44;;;;;;;6.90;4.70;;;13.10;99.90;;;;;;6353407;27;20479;-64
2022/10/24 00:30:52;;;;;;;6.00;4.63;;;13.20;99.90;;;;;;6353843;28;20934;-64
2022/10/24 00:33:56;;;;;;;6.33;4.40;;;13.20;99.90;;;;;;6353952;28;20471;-64
2022/10/24 00:36:59;;;;;;;4.43;4.03;;;13.20;99.90;;;;;;6353700;28;20467;-64
2022/10/24 00:40:04;;;;;;;8.57;4.67;;;13.40;99.90;;;;;;6353364;28;20979;-64
2022/10/24 00:43:13;;;;;;;7.90;4.37;;;13.40;99.90;;;;;;6353541;28;20463;-64
2022/10/24 00:46:19;;;;;;;4.73;4.10;;;13.30;99.90;;;;;;6354173;28;20471;-64
2022/10/24 00:49:27;;;;;;;7.33;4.13;;;13.40;99.90;;;;;;6353125;28;20497;-63
2022/10/24 00:52:34;;;;;;;7.43;3.73;;;13.40;99.90;;;;;;6353230;28;20524;-63
2022/10/24 00:55:37;;;;;;;8.00;7.30;;;13.50;99.90;;;;;;6353294;28;20472;-63
2022/10/24 00:58:43;;;;;;;6.33;4.67;;;13.50;99.90;;;;;;6352943;27;20475;-63
2022/10/24 01:01:48;;;;;;;4.53;4.13;;;13.50;99.90;;;;;;6353333;28;20838;-63
2022/10/24 01:04:53;;;;;;;4.53;3.70;;;13.40;99.90;;;;;;6353497;28;20958;-63
2022/10/24 01:08:08;;;;;;;5.10;4.60;;;13.40;99.90;;;;;;6352927;28;20478;-64
2022/10/24 01:11:20;;;;;;;5.93;4.73;;;13.30;99.90;;;;;;6353202;28;20488;-64
2022/10/24 01:14:36;;;;;;;4.87;4.23;;;13.30;99.90;;;;;;6353015;28;20862;-63
2022/10/24 01:17:45;;;;;;;4.33;3.93;;;13.30;99.90;;;;;;6352544;27;20474;-64
2022/10/24 01:21:03;;;;;;;5.77;4.10;;;13.30;99.90;;;;;;6363521;28;20428;-63
2022/10/24 01:24:29;;;;;;;4.30;3.90;;;13.40;99.90;;;;;;6366808;28;20468;-63
2022/10/24 01:27:48;;;;;;;5.57;4.70;;;13.40;99.90;;;;;;6352697;28;20529;-64
2022/10/24 01:31:01;;;;;;;5.70;4.50;;;13.30;99.90;;;;;;6352596;28;20476;-64
2022/10/24 01:34:14;;;;;;;8.87;5.30;;;13.30;99.90;;;;;;6351929;28;20475;-64
2022/10/24 01:37:23;;;;;;;7.80;6.70;;;13.20;99.90;;;;;;6352365;28;20467;-64
2022/10/24 01:40:31;;;;;;;6.63;6.13;;;13.20;99.90;;;;;;6352331;28;20497;-64
2022/10/24 01:43:39;;;;;;;9.03;6.53;;;13.10;99.90;;;;;;6352303;28;20541;-64
2022/10/24 01:46:50;;;;;;;9.23;7.20;;;13.10;99.90;;;;;;6352012;28;20985;-64
2022/10/24 01:49:58;;;;;;;8.60;7.70;;;13.10;99.90;;;;;;6332607;28;20509;-64
2022/10/24 01:53:02;;;;;;;7.70;7.10;;;13.10;99.90;;;;;;6305976;28;20474;-63
2022/10/24 01:56:06;;;;;;;10.80;8.50;;;13.10;99.90;;;;;;6322032;28;20468;-63
2022/10/24 01:59:40;;;;;;;7.57;6.90;;;13.10;99.90;;;;;;6326897;28;20476;-63
2022/10/24 02:02:49;;;;;;;12.10;7.53;;;13.00;99.90;;;;;;6327230;28;20515;-63
2022/10/24 02:05:56;;;;;;;8.20;7.40;;;13.00;99.90;;;;;;6326248;28;20441;-63
2022/10/24 02:09:05;;;;;;;12.43;8.10;;;13.00;99.90;;;;;;6326228;28;20475;-64
2022/10/24 02:12:10;;;;;;;9.27;8.27;;;13.00;99.90;;;;;;6326161;28;20457;-64
2022/10/24 02:15:19;;;;;;;9.50;8.50;;;13.00;99.90;;;;;;6325801;28;20471;-64
2022/10/24 02:18:24;;;;;;;7.70;7.00;;;12.90;99.90;;;;;;6325952;28;20475;-64
2022/10/24 02:21:31;;;;;;;8.50;7.60;;;13.00;99.90;;;;;;6325749;28;20828;-64
2022/10/24 02:24:39;;;;;;;9.50;8.53;;;13.00;99.90;;;;;;6325722;28;20468;-64
2022/10/24 02:27:47;;;;;;;12.23;8.30;;;13.00;99.90;;;;;;6325402;28;20490;-64
2022/10/24 02:30:58;;;;;;;9.80;8.43;;;13.00;99.90;;;;;;6325645;28;20472;-64
2022/10/24 02:34:05;;;;;;;11.20;8.43;;;13.00;99.90;;;;;;6325414;28;20480;-64
2022/10/24 02:37:11;;;;;;;8.20;7.40;;;13.00;99.90;;;;;;6325216;28;20569;-64
2022/10/24 02:40:18;;;;;;;8.03;7.20;;;12.90;99.90;;;;;;6311796;28;21007;-64
2022/10/24 02:43:22;;;;;;;8.57;7.70;;;13.00;99.90;;;;;;6300070;28;21007;-64
2022/10/24 02:46:27;;;;;;;6.80;5.73;;;13.00;99.90;;;;;;6299082;28;20465;-64
2022/10/24 02:49:31;;;;;;;9.67;5.23;;;13.00;99.90;;;;;;6299722;28;20531;-63
2022/10/24 02:52:36;;;;;;;6.57;4.20;;;13.00;99.90;;;;;;6299945;28;20466;-63
2022/10/24 02:55:39;;;;;;;8.90;4.37;;;13.20;99.90;;;;;;6299730;28;20473;-63
2022/10/24 02:58:42;;;;;;;5.53;3.53;;;13.30;99.90;;;;;;6299904;28;20477;-63
2022/10/24 03:01:45;;;;;;;4.27;3.87;;;13.40;99.90;;;;;;6300168;28;20479;-63
2022/10/24 03:04:50;;;;;;;10.10;4.57;;;13.50;99.90;;;;;;6299888;28;20469;-63
2022/10/24 03:07:53;;;;;;;4.27;3.87;;;13.60;99.90;;;;;;6299380;28;20809;-63
2022/10/24 03:10:56;;;;;;;6.40;4.40;;;13.80;99.90;;;;;;6299492;28;20976;-63
2022/10/24 03:13:59;;;;;;;6.77;4.17;;;13.90;99.90;;;;;;6299411;28;20499;-63
2022/10/24 03:17:02;;;;;;;4.40;4.00;;;14.10;99.90;;;;;;6299840;28;20477;-63
2022/10/24 03:20:08;;;;;;;5.70;4.00;;;14.10;99.90;;;;;;6299913;28;20469;-63
2022/10/24 03:23:12;;;;;;;8.63;4.83;;;14.20;99.90;;;;;;6298927;28;20973;-64
2022/10/24 03:26:15;;;;;;;5.20;4.17;;;14.10;99.90;;;;;;6299450;28;20477;-64
2022/10/24 03:29:18;;;;;;;7.77;4.10;;;14.00;99.90;;;;;;6316143;28;20478;-63
2022/10/24 03:32:21;;;;;;;6.20;4.00;;;14.00;99.90;;;;;;6313640;28;20477;-63
2022/10/24 03:35:26;;;;;;;6.03;4.17;;;14.00;99.90;;;;;;6299241;28;20475;-64
2022/10/24 03:38:29;;;;;;;5.53;4.37;;;14.00;99.90;;;;;;6299502;28;20964;-63
2022/10/24 03:41:32;;;;;;;6.13;4.23;;;14.00;99.90;;;;;;6299229;28;21071;-63
2022/10/24 03:44:35;;;;;;;5.43;4.60;;;13.90;99.90;;;;;;6299224;28;21022;-64
2022/10/24 03:47:39;;;;;;;5.37;4.87;;;13.90;99.90;;;;;;6350305;28;20504;-64
2022/10/24 03:50:43;;;;;;;4.53;4.13;;;13.90;99.90;;;;;;6349676;28;20490;-64
2022/10/24 03:53:46;;;;;;;5.83;3.50;;;13.80;99.90;;;;;;6351201;28;20443;-64
2022/10/24 03:56:49;;;;;;;5.33;4.20;;;13.80;99.90;;;;;;6353650;27;20509;-63
2022/10/24 03:59:52;;;;;;;4.40;4.00;;;13.70;99.90;;;;;;6354694;28;20459;-63
2022/10/24 04:02:56;;;;;;;4.27;3.63;;;13.70;99.90;;;;;;6357021;27;20450;-64
2022/10/24 04:06:00;;;;;;;6.50;4.57;;;13.60;99.90;;;;;;6352894;28;20523;-64
2022/10/24 04:09:04;;;;;;;4.77;3.93;;;13.60;99.90;;;;;;6313655;28;20461;-64
2022/10/24 04:12:07;;;;;;;7.73;4.20;;;13.50;99.90;;;;;;6309135;28;20960;-63
2022/10/24 04:15:11;;;;;;;5.00;4.17;;;13.40;99.90;;;;;;6303827;28;20464;-63
2022/10/24 04:18:14;;;;;;;11.70;10.50;;;13.30;99.90;;;;;;6303472;28;20468;-63
2022/10/24 04:21:19;;;;;;;6.13;4.93;;;13.20;99.90;;;;;;6304077;28;20457;-64
2022/10/24 04:24:24;;;;;;;11.10;4.77;;;13.20;99.90;;;;;;6303920;28;20967;-64
2022/10/24 04:27:27;;;;;;;6.80;4.50;;;13.20;99.90;;;;;;6303421;28;20481;-63
2022/10/24 04:30:30;;;;;;;6.47;4.20;;;13.20;99.90;;;;;;6303399;28;20491;-63
2022/10/24 04:33:35;;;;;;;6.33;4.70;;;13.20;99.90;;;;;;6303854;28;20473;-63
2022/10/24 04:36:39;;;;;;;4.80;4.30;;;13.20;99.90;;;;;;6303291;28;20476;-63
2022/10/24 04:39:42;;;;;;;5.53;4.10;;;13.20;99.90;;;;;;6303286;28;20481;-64
2022/10/24 04:42:46;;;;;;;6.87;4.23;;;13.20;99.90;;;;;;6303239;28;20530;-64
2022/10/24 04:45:50;;;;;;;6.50;4.80;;;13.20;99.90;;;;;;6303009;28;20469;-64
2022/10/24 04:48:53;;;;;;;5.17;4.43;;;13.30;99.90;;;;;;6303197;28;20484;-64
2022/10/24 04:51:57;;;;;;;6.00;4.87;;;13.30;99.90;;;;;;6302660;28;20473;-64
2022/10/24 04:55:01;;;;;;;6.33;5.67;;;13.40;99.90;;;;;;6302791;28;20473;-68
2022/10/24 04:58:04;;;;;;;8.73;5.33;;;13.40;99.90;;;;;;6302589;28;20534;-68
2022/10/24 05:01:07;;;;;;;9.67;4.73;;;13.40;99.90;;;;;;6301123;28;21050;-66
2022/10/24 05:04:11;;;;;;;6.00;5.30;;;13.40;99.90;;;;;;6301358;28;20470;-64
2022/10/24 05:07:16;;;;;;;5.70;4.80;;;13.40;99.90;;;;;;6301425;28;20816;-64
2022/10/24 05:10:19;;;;;;;6.60;5.83;;;13.50;99.90;;;;;;6301068;28;20944;-64
2022/10/24 05:13:22;;;;;;;5.83;5.13;;;13.50;99.90;;;;;;6302698;28;20780;-64
2022/10/24 05:16:25;;;;;;;9.30;5.50;;;13.50;99.90;;;;;;6302472;28;20469;-64
2022/10/24 05:19:28;;;;;;;7.17;6.07;;;13.50;99.90;;;;;;6302272;28;20474;-64
2022/10/24 05:22:33;;;;;;;11.00;6.60;;;13.60;99.90;;;;;;6301863;28;20956;-64
2022/10/24 05:25:36;;;;;;;6.47;5.83;;;13.50;99.90;;;;;;6301982;28;20961;-64
2022/10/24 05:28:40;;;;;;;9.70;6.27;;;13.50;99.90;;;;;;6302288;28;20984;-64
2022/10/24 05:31:43;;;;;;;12.07;9.10;;;13.50;99.90;;;;;;6303353;28;20477;-64
2022/10/24 05:34:46;;;;;;;11.83;7.67;;;13.50;99.90;;;;;;6315636;28;20503;-64
2022/10/24 05:37:50;;;;;;;10.70;8.23;;;13.50;99.90;;;;;;6321140;28;20499;-63
2022/10/24 05:40:53;;;;;;;9.47;8.27;;;13.50;99.90;;;;;;6314704;28;20476;-64
2022/10/24 05:43:57;;;;;;;7.43;6.73;;;13.50;99.90;;;;;;6304773;28;20481;-64
2022/10/24 05:47:00;;;;;;;7.30;6.43;;;13.40;99.90;;;;;;6302672;28;20518;-64
2022/10/24 05:50:04;;;;;;;7.47;6.70;;;13.40;99.90;;;;;;6302315;28;20473;-64
2022/10/24 05:53:09;;;;;;;9.17;8.27;;;13.50;99.90;;;;;;6302439;28;20473;-64
2022/10/24 05:56:12;;;;;;;26.30;17.00;;;13.50;99.90;;;;;;6301417;28;20481;-64
2022/10/24 05:59:15;;;;;;;29.10;20.93;;;13.50;99.90;;;;;;6301909;28;20473;-64
2022/10/24 06:02:20;;;;;;;7.87;5.60;;;13.60;99.90;;;;;;6302121;28;20473;-63
2022/10/24 06:05:23;;;;;;;12.00;6.00;;;13.60;99.90;;;;;;6302084;28;20465;-64
2022/10/24 06:08:28;;;;;;;8.23;6.57;;;13.50;99.90;;;;;;6301880;28;20477;-64
2022/10/24 06:11:31;;;;;;;12.77;9.63;;;13.50;99.90;;;;;;6301886;28;20481;-64
2022/10/24 06:14:34;;;;;;;11.60;10.30;;;13.60;99.90;;;;;;6301278;28;20481;-64
2022/10/24 06:17:37;;;;;;;12.70;8.70;;;13.60;99.90;;;;;;6297354;28;20485;-64
2022/10/24 06:20:40;;;;;;;13.83;10.80;;;13.60;99.90;;;;;;6299697;28;20469;-64
2022/10/24 06:23:45;;;;;;;11.37;9.60;;;13.70;99.90;;;;;;6301229;28;20441;-64
2022/10/24 06:26:48;;;;;;;8.73;6.50;;;13.80;99.90;;;;;;6300810;28;20983;-64
2022/10/24 06:29:51;;;;;;;8.17;6.03;;;13.80;99.90;;;;;;6301108;28;20472;-64
2022/10/24 06:32:54;;;;;;;15.67;8.17;;;13.80;99.90;;;;;;6300602;28;20489;-64
2022/10/24 06:35:59;;;;;;;14.53;8.97;;;13.90;99.90;;;;;;6300238;28;20442;-64
2022/10/24 06:39:04;;;;;;;12.47;10.50;;;14.00;99.90;;;;;;6300177;28;20531;-65
2022/10/24 06:42:07;;;;;;;14.77;9.60;;;14.00;99.90;;;;;;6300424;28;20465;-64
2022/10/24 06:45:11;;;;;;;9.23;6.10;;;14.10;99.90;;;;;;6300445;28;20473;-64
2022/10/24 06:48:14;;;;;;;8.97;5.53;;;14.10;99.90;;;;;;6300003;28;20481;-64
2022/10/24 06:51:17;;;;;;;8.47;6.70;;;14.20;99.90;;;;;;6300427;28;20473;-64
2022/10/24 06:54:21;;;;;;;7.40;6.17;;;14.20;99.90;;;;;;6300590;28;20979;-64
2022/10/24 06:57:29;;;;;;;11.67;7.33;;;14.20;99.90;;;;;;6300189;28;20477;-65
2022/10/24 07:00:33;;;;;;;9.53;7.40;;;14.30;99.90;;;;;;6299993;28;20469;-64
2022/10/24 07:03:36;;;;;;;10.30;6.73;;;14.20;99.90;;;;;;6299889;28;20488;-64
2022/10/24 07:06:39;;;;;;;9.07;7.50;;;14.00;99.90;;;;;;6299682;28;20967;-64
2022/10/24 07:09:44;;;;;;;8.70;7.80;;;14.00;99.90;;;;;;6299798;28;20488;-65
2022/10/24 07:12:47;;;;;;;8.80;7.90;;;14.30;99.90;;;;;;6299841;28;20469;-64
2022/10/24 07:15:53;;;;;;;13.60;7.40;;;14.60;99.90;;;;;;6299952;28;20465;-64
2022/10/24 07:18:56;;;;;;;11.37;7.80;;;14.80;99.90;;;;;;6299829;28;20480;-64
2022/10/24 07:21:59;;;;;;;12.03;7.40;;;15.00;99.90;;;;;;6299746;28;20584;-64
2022/10/24 07:25:05;;;;;;;8.40;7.07;;;15.30;99.90;;;;;;6299533;28;20530;-64
2022/10/24 07:28:09;;;;;;;15.30;7.50;;;15.50;99.90;;;;;;6299233;28;20478;-64
2022/10/24 07:31:13;;;;;;;10.33;7.47;;;15.50;99.90;;;;;;6298572;28;20488;-64
2022/10/24 07:34:17;;;;;;;11.40;8.27;;;15.60;99.90;;;;;;6298217;28;20477;-64
2022/10/24 07:37:21;;;;;;;10.50;6.70;;;15.60;99.90;;;;;;6298282;28;20828;-64
2022/10/24 07:40:25;;;;;;;13.20;8.20;;;15.60;99.90;;;;;;6298643;28;20800;-64
2022/10/24 07:43:28;;;;;;;18.60;9.90;;;15.70;99.90;;;;;;6299122;28;20980;-63
2022/10/24 07:46:32;;;;;;;11.17;7.90;;;15.70;99.90;;;;;;6298915;28;20497;-63
2022/10/24 07:49:35;;;;;;;12.23;8.83;;;15.80;99.90;;;;;;6299989;28;20480;-63
2022/10/24 07:52:38;;;;;;;10.83;8.70;;;15.90;99.90;;;;;;6299574;28;20477;-63
2022/10/24 07:55:44;;;;;;;9.53;7.67;;;16.10;99.90;;;;;;6299595;28;20788;-63
2022/10/24 07:58:47;;;;;;;9.87;7.90;;;16.30;99.90;;;;;;6299438;28;20861;-63
2022/10/24 08:01:50;;;;;;;11.43;7.30;;;16.70;99.90;;;;;;6299215;28;20488;-64
2022/10/24 08:04:53;;;;;;;8.40;6.60;;;16.90;99.90;;;;;;6299462;28;20479;-64
2022/10/24 08:07:57;;;;;;;8.80;7.60;;;17.10;99.90;;;;;;6300563;28;20469;-64
2022/10/24 08:11:23;;;;;;;9.33;6.33;;;17.40;99.90;;;;;;6302964;28;20841;-64
2022/10/24 08:14:26;;;;;;;8.97;6.23;;;17.80;99.90;;;;;;6298891;28;20855;-64
2022/10/24 08:17:30;;;;;;;10.27;7.77;;;18.00;99.90;;;;;;6298935;28;20874;-64
2022/10/24 08:20:33;;;;;;;12.43;7.20;;;18.30;99.90;;;;;;6299757;28;20470;-64
2022/10/24 08:23:40;;;;;;;10.50;6.63;;;18.50;99.90;;;;;;6301779;28;20474;-64
2022/10/24 08:26:44;;;;;;;10.47;6.83;;;18.50;99.90;;;;;;6301125;28;20231;-64
2022/10/24 08:29:47;;;;;;;12.33;8.90;;;18.70;99.90;;;;;;6299372;28;20223;-64
2022/10/24 08:32:50;;;;;;;15.00;7.07;;;18.70;99.90;;;;;;6299880;28;20230;-64
2022/10/24 08:35:56;;;;;;;8.50;6.63;;;18.90;99.90;;;;;;6304882;28;20214;-64
2022/10/24 08:39:01;;;;;;;18.90;13.77;;;19.20;99.90;;;;;;6301351;28;20235;-64
2022/10/24 08:42:10;;;;;;;17.87;10.77;;;19.50;99.90;;;;;;6298759;28;20223;-64
2022/10/24 08:45:19;;;;;;;21.77;17.40;;;19.60;99.90;;;;;;6303105;28;20241;-64
2022/10/24 08:48:27;;;;;;;28.87;24.33;;;19.80;99.90;;;;;;6303049;28;20235;-64
2022/10/24 08:51:39;;;;;;;16.77;12.40;;;20.00;99.90;;;;;;6303506;28;20675;-64
2022/10/24 08:54:44;;;;;;;8.07;7.27;;;20.20;99.90;;;;;;6302599;28;20235;-64
2022/10/24 08:57:52;;;;;;;10.33;8.23;;;20.30;99.90;;;;;;6302518;28;20240;-64
2022/10/24 09:00:57;;;;;;;10.87;7.90;;;20.20;99.90;;;;;;6303177;28;20234;-63
2022/10/24 09:04:05;;;;;;;10.37;6.77;;;20.10;99.90;;;;;;6302668;28;20310;-63
2022/10/24 09:07:16;;;;;;;8.27;5.87;;;20.00;99.90;;;;;;6302661;28;20228;-63
2022/10/24 09:10:26;;;;;;;5.90;5.20;;;20.10;99.90;;;;;;6298561;28;20234;-64
2022/10/24 09:13:32;;;;;;;14.20;7.17;;;20.20;99.90;;;;;;6300169;28;20242;-65
2022/10/24 09:16:36;;;;;;;8.63;5.77;;;20.20;99.90;;;;;;6279544;28;20227;-64
2022/10/24 09:19:39;;;;;;;11.33;6.23;;;20.40;99.90;;;;;;6277610;28;20239;-63
2022/10/24 09:22:43;;;;;;;9.57;5.90;;;20.30;99.90;;;;;;6277030;28;20706;-65
2022/10/24 09:25:50;;;;;;;11.87;6.93;;;20.30;99.90;;;;;;6277925;28;20223;-64
2022/10/24 09:28:55;;;;;;;11.53;5.70;;;20.30;99.90;;;;;;6294817;28;20292;-63
2022/10/24 09:31:59;;;;;;;8.03;5.40;;;20.50;99.90;;;;;;6302531;28;20249;-65
2022/10/24 09:35:06;;;;;;;8.50;5.63;;;21.50;99.90;;;;;;6309199;28;20235;-64
2022/10/24 09:38:27;;;;;;;7.17;5.63;;;23.20;99.00;;;;;;6312419;28;20250;-64
2022/10/24 09:41:32;;;;;;;9.87;5.20;;;24.60;95.90;;;;;;6309533;28;20276;-64
2022/10/24 09:44:39;;;;;;;6.13;4.70;;;26.50;92.30;;;;;;6304039;28;20554;-63
2022/10/24 09:47:43;;;;;;;10.37;5.17;;;29.00;84.00;;;;;;6326849;28;20238;-64
2022/10/24 09:50:49;;;;;;;7.70;4.87;;;30.10;70.20;;;;;;6301054;28;20537;-64
2022/10/24 09:54:02;;;;;;;6.10;4.37;;;30.30;65.50;;;;;;6300854;28;20207;-63
2022/10/24 09:57:13;;;;;;;10.07;4.47;;;30.80;60.30;;;;;;6301350;28;20237;-63
2022/10/24 10:00:27;;;;;;;7.90;4.80;;;31.10;58.50;;;;;;6301875;28;20238;-63
2022/10/24 10:03:30;;;;;;;12.80;4.20;;;31.80;54.00;;;;;;6300625;28;20697;-64
2022/10/24 10:06:34;;;;;;;10.50;5.22;;;31.40;53.00;;;;;;6301368;28;20226;-63
2022/10/24 10:09:41;;;;;;;8.73;4.95;;;31.50;53.60;;;;;;6300887;28;20238;-63
2022/10/24 10:12:46;;;;;;;6.72;4.22;;;32.30;51.20;;;;;;6300116;28;20230;-63
2022/10/24 10:15:54;;;;;;;13.18;4.10;;;31.80;50.60;;;;;;6298481;28;20237;-63
2022/10/24 10:19:02;;;;;;;7.80;4.20;;;30.70;51.40;;;;;;6299342;28;20299;-63
2022/10/24 10:22:20;;;;;;;5.90;4.03;;;29.60;53.50;;;;;;6300965;28;20230;-63
2022/10/24 10:25:31;;;;;;;9.03;5.63;;;28.40;55.80;;;;;;6317204;28;20226;-65
2022/10/24 10:28:37;;;;;;;7.77;4.80;;;27.20;58.60;;;;;;6306514;28;20241;-64
2022/10/24 10:31:43;;;;;;;6.50;4.23;;;26.00;61.10;;;;;;6301450;28;20241;-63
2022/10/24 10:34:51;;;;;;;8.43;4.43;;;25.00;64.70;;;;;;6300638;28;20231;-63
2022/10/24 10:37:59;;;;;;;10.00;4.60;;;24.20;67.90;;;;;;6300744;28;20239;-64
2022/10/24 10:41:12;;;;;;;11.10;4.43;;;23.60;70.40;;;;;;6300806;28;20223;-63
2022/10/24 10:44:26;;;;;;;11.93;4.40;;;23.10;72.80;;;;;;6300040;28;20226;-63
2022/10/24 10:47:42;;;;;;;6.20;4.20;;;22.60;76.40;;;;;;6294720;28;20227;-64
2022/10/24 10:50:51;;;;;;;5.50;4.30;;;22.20;78.40;;;;;;6297852;28;20216;-63
2022/10/24 10:54:06;;;;;;;7.33;4.83;;;21.90;81.20;;;;;;6300098;28;20654;-63
2022/10/24 10:57:12;;;;;;;17.60;5.20;;;21.70;84.40;;;;;;6285584;28;20242;-63
2022/10/24 11:00:19;;;;;;;8.13;4.03;;;21.50;86.20;;;;;;6274509;28;20242;-63
2022/10/24 11:03:37;;;;;;;9.27;4.90;;;21.30;88.90;;;;;;6273557;28;20235;-63
2022/10/24 11:06:49;;;;;;;6.17;3.83;;;21.10;90.50;;;;;;6273071;28;20285;-63
2022/10/24 11:09:56;;;;;;;6.00;3.90;;;20.90;91.30;;;;;;6274699;28;20290;-64
2022/10/24 11:13:06;;;;;;;9.23;4.40;;;20.80;92.00;;;;;;6287845;28;20300;-63
2022/10/24 11:16:14;;;;;;;11.07;5.30;;;20.70;92.70;;;;;;6299172;28;20239;-62
2022/10/24 11:19:26;;;;;;;11.67;4.30;;;20.70;93.20;;;;;;6299579;28;20288;-63
2022/10/24 11:22:34;;;;;;;7.50;5.00;;;20.60;93.60;;;;;;6299389;28;20231;-62
2022/10/24 11:25:42;;;;;;;12.30;5.53;;;20.60;94.00;;;;;;6296062;28;20679;-64
2022/10/24 11:28:52;;;;;;;11.70;5.00;;;20.50;94.80;;;;;;6298411;28;20238;-61
2022/10/24 11:31:59;;;;;;;8.83;5.40;;;20.50;95.40;;;;;;6299225;28;20228;-62
2022/10/24 11:35:13;;;;;;;8.00;5.20;;;20.40;95.70;;;;;;6319560;28;20357;-63
2022/10/24 11:38:20;;;;;;;6.43;4.80;;;20.40;96.10;;;;;;6324314;28;20307;-63
2022/10/24 11:41:39;;;;;;;9.63;5.40;;;20.40;96.20;;;;;;6324629;28;20245;-63
2022/10/24 11:44:48;;;;;;;8.13;5.67;;;20.40;96.50;;;;;;6298848;28;20531;-63
2022/10/24 11:47:59;;;;;;;7.93;5.03;;;20.40;96.70;;;;;;6298909;28;20593;-64
2022/10/24 11:51:12;;;;;;;11.33;5.10;;;20.50;97.00;;;;;;6298966;28;20710;-62
2022/10/24 11:54:21;;;;;;;11.43;5.80;;;20.40;97.30;;;;;;6299294;28;20239;-62
2022/10/24 11:57:27;;;;;;;7.03;4.93;;;20.30;97.80;;;;;;6299446;28;20322;-63
2022/10/24 12:00:34;;;;;;;7.60;5.10;;;20.50;97.90;;;;;;6305698;28;20230;-63
2022/10/24 12:04:05;;;;;;;7.97;5.73;;;20.60;97.80;;;;;;6324178;28;20260;-62
2022/10/24 12:07:40;;;;;;;7.87;5.60;;;20.80;97.80;;;;;;6308632;28;20521;-62
2022/10/24 12:10:57;;;;;;;8.83;5.90;;;20.90;98.00;;;;;;6297649;28;20227;-62
2022/10/24 12:14:33;;;;;;;11.90;5.50;;;20.90;98.20;;;;;;6298583;28;20729;-62
2022/10/24 12:17:47;;;;;;;9.70;5.33;;;20.80;98.60;;;;;;6300112;28;20573;-62
2022/10/24 12:20:52;;;;;;;10.07;5.00;;;20.60;99.10;;;;;;6302576;28;20211;-62
2022/10/24 12:23:59;;;;;;;8.00;4.20;;;20.40;99.90;;;;;;6301574;28;20721;-62
2022/10/24 12:27:05;;;;;;;7.07;4.10;;;20.30;99.90;;;;;;6300278;28;20242;-62
2022/10/24 12:30:17;;;;;;;7.60;4.33;;;20.30;99.90;;;;;;6304313;28;20245;-62
2022/10/24 12:33:26;;;;;;;9.27;6.20;;;20.20;99.90;;;;;;6303961;28;20238;-62
2022/10/24 12:37:06;;;;;;;6.27;4.87;;;20.00;99.90;;;;;;6301265;28;20666;-62
2022/10/24 12:40:54;;;;;;;8.10;5.33;;;19.90;99.90;;;;;;6279041;28;20235;-63
2022/10/24 12:44:35;;;;;;;10.47;5.70;;;20.00;99.90;;;;;;6281449;28;20251;-63
2022/10/24 12:47:40;;;;;;;9.20;5.97;;;19.90;99.90;;;;;;6298612;28;20223;-63
2022/10/24 12:51:05;;;;;;;11.63;6.00;;;19.80;99.90;;;;;;6303383;28;20238;-63
2022/10/24 12:54:17;;;;;;;7.50;6.03;;;19.80;99.90;;;;;;6300441;28;20231;-62
2022/10/24 12:57:27;;;;;;;20.13;6.73;;;19.80;99.90;;;;;;6309617;28;20231;-62
2022/10/24 13:00:32;;;;;;;10.90;6.30;;;19.80;99.90;;;;;;6321604;28;20288;-63
2022/10/24 13:04:13;;;;;;;12.67;6.53;;;19.80;99.90;;;;;;6297515;28;20712;-63
2022/10/24 13:07:29;;;;;;;10.43;6.37;;;19.80;99.90;;;;;;6302720;28;20230;-63
2022/10/24 13:10:45;;;;;;;7.90;6.60;;;19.90;99.90;;;;;;6301930;28;20713;-62
2022/10/24 13:14:17;;;;;;;12.33;7.00;;;19.90;99.90;;;;;;6302954;28;20239;-63
2022/10/24 13:17:32;;;;;;;10.07;6.10;;;20.00;99.90;;;;;;6301034;28;20223;-64
2022/10/24 13:20:39;;;;;;;9.47;6.97;;;20.00;99.90;;;;;;6300841;28;20243;-62
2022/10/24 13:23:44;;;;;;;9.10;6.93;;;20.10;99.90;;;;;;6300967;28;20237;-62
2022/10/24 13:26:50;;;;;;;9.20;7.40;;;20.10;99.90;;;;;;6301112;28;20231;-63
2022/10/24 13:30:22;;;;;;;11.37;6.70;;;20.00;99.90;;;;;;6323584;28;20229;-63
2022/10/24 13:33:42;;;;;;;13.30;7.47;;;20.00;99.90;;;;;;6302022;28;20227;-63
2022/10/24 13:36:49;;;;;;;13.97;7.33;;;20.00;99.90;;;;;;6302126;28;20555;-63
2022/10/24 13:39:56;;;;;;;15.30;7.00;;;20.10;99.90;;;;;;6302184;28;20235;-63
2022/10/24 13:43:02;;;;;;;15.83;7.53;;;20.10;99.90;;;;;;6301957;28;20238;-65
2022/10/24 13:46:18;;;;;;;11.47;7.17;;;20.20;99.90;;;;;;6295168;28;20259;-65
2022/10/24 13:49:28;;;;;;;13.53;7.40;;;20.30;99.90;;;;;;6277173;28;20242;-65
2022/10/24 13:52:38;;;;;;;10.87;7.30;;;20.30;99.90;;;;;;6277165;28;20228;-65
2022/10/24 13:55:45;;;;;;;12.87;7.77;;;20.40;99.90;;;;;;6276649;28;20232;-66
2022/10/24 13:58:48;;;;;;;9.03;7.03;;;20.50;99.90;;;;;;6276660;28;20251;-66
2022/10/24 14:01:53;;;;;;;15.73;6.47;;;20.50;99.90;;;;;;6276594;28;20227;-64
2022/10/24 14:04:56;;;;;;;9.63;6.60;;;20.60;99.90;;;;;;6276563;28;20236;-64
2022/10/24 14:08:01;;;;;;;13.57;7.07;;;20.70;99.90;;;;;;6276173;28;20231;-64
2022/10/24 14:11:07;;;;;;;15.40;9.60;;;20.80;99.90;;;;;;6299337;28;20235;-64
2022/10/24 14:14:25;;;;;;;12.77;6.50;;;20.80;99.90;;;;;;6301285;28;20285;-64
2022/10/24 14:17:32;;;;;;;9.47;7.20;;;20.80;99.90;;;;;;6301006;28;20237;-64
2022/10/24 14:20:37;;;;;;;10.67;6.40;;;20.80;99.90;;;;;;6300781;28;20231;-64
2022/10/24 14:23:41;;;;;;;8.30;7.30;;;20.90;99.90;;;;;;6299290;28;20249;-64
2022/10/24 14:26:46;;;;;;;13.87;7.37;;;20.90;99.90;;;;;;6298206;28;20239;-63
2022/10/24 14:29:55;;;;;;;9.83;6.53;;;20.90;99.90;;;;;;6299197;28;20237;-63
2022/10/24 14:33:20;;;;;;;12.23;6.03;;;21.00;99.90;;;;;;6300172;28;20207;-63
2022/10/24 14:36:27;;;;;;;8.47;5.67;;;21.10;99.90;;;;;;6299694;28;20725;-64
2022/10/24 14:39:30;;;;;;;14.33;6.70;;;21.10;99.90;;;;;;6299299;28;20245;-64
2022/10/24 14:42:34;;;;;;;8.43;6.30;;;21.10;99.90;;;;;;6300442;28;20242;-63
2022/10/24 14:45:38;;;;;;;10.80;6.07;;;20.90;99.90;;;;;;6285495;28;20219;-64
2022/10/24 14:48:44;;;;;;;11.60;6.53;;;20.80;99.90;;;;;;6305234;28;20575;-63
2022/10/24 14:51:49;;;;;;;22.93;9.87;;;20.70;99.90;;;;;;6305087;28;20223;-63
2022/10/24 14:54:57;;;;;;;12.37;8.00;;;20.40;99.90;;;;;;6303804;28;20231;-64
2022/10/24 14:58:00;;;;;;;15.27;7.80;;;20.30;99.90;;;;;;6300418;28;20224;-65
2022/10/24 15:01:04;;;;;;;9.33;7.43;;;20.10;99.90;;;;;;6300165;28;20223;-65
2022/10/24 15:04:30;;;;;;;10.50;5.67;;;20.00;99.90;;;;;;6299814;28;20588;-64
2022/10/24 15:07:37;;;;;;;7.80;6.20;;;19.90;99.90;;;;;;6300053;28;20577;-66
2022/10/24 15:10:46;;;;;;;14.60;6.93;;;19.90;99.90;;;;;;6300033;28;20266;-65
2022/10/24 15:13:52;;;;;;;8.37;7.07;;;19.80;99.90;;;;;;6299503;28;20231;-65
2022/10/24 15:17:24;;;;;;;11.37;6.73;;;19.90;99.90;;;;;;6300021;28;20223;-65
2022/10/24 15:20:39;;;;;;;9.43;7.50;;;19.90;99.90;;;;;;6299824;28;20227;-66
2022/10/24 15:23:47;;;;;;;12.10;7.53;;;19.90;99.90;;;;;;6299965;28;20227;-66
2022/10/24 15:26:51;;;;;;;12.43;7.97;;;19.80;99.90;;;;;;6324525;28;20238;-66
2022/10/24 15:29:54;;;;;;;16.50;7.60;;;19.70;99.90;;;;;;6324823;28;20294;-66
2022/10/24 15:32:59;;;;;;;10.87;7.27;;;19.60;99.90;;;;;;6324499;28;20634;-66
2022/10/24 15:36:04;;;;;;;12.27;7.20;;;19.60;99.90;;;;;;6327586;28;20233;-66
2022/10/24 15:39:13;;;;;;;12.80;7.70;;;19.40;99.90;;;;;;6333446;28;20250;-67
2022/10/24 15:42:16;;;;;;;21.07;19.07;;;19.30;99.90;;;;;;6325161;28;20234;-66
2022/10/24 15:45:24;;;;;;;14.33;11.67;;;19.20;99.90;;;;;;6324494;28;20343;-66
2022/10/24 15:48:28;;;;;;;17.73;8.70;;;19.10;99.90;;;;;;6325371;28;20299;-66
2022/10/24 15:51:33;;;;;;;12.73;8.77;;;19.00;99.90;;;;;;6330212;28;20245;-67
2022/10/24 15:54:36;;;;;;;14.90;9.33;;;18.90;99.90;;;;;;6341914;28;20237;-66
2022/10/24 15:57:40;;;;;;;22.43;11.60;;;18.80;99.90;;;;;;6349516;28;20574;-66
2022/10/24 16:00:43;;;;;;;19.53;9.27;;;18.70;99.90;;;;;;6350281;28;20226;-66
2022/10/24 16:03:46;;;;;;;19.13;11.50;;;18.60;99.90;;;;;;6350173;28;20229;-66
2022/10/24 16:06:51;;;;;;;13.73;8.40;;;18.50;99.90;;;;;;6323696;28;20516;-65
2022/10/24 16:09:56;;;;;;;22.93;11.20;;;18.40;99.90;;;;;;6324178;28;20234;-66